Flight Track Log - Related Links

Times and Time Zones

All times are in EDT time to prevent confusion due to time zone crossing. See the ASQ5941 flight status page for this flight to view local times or setup timezone preferences in your user account.

Time Position Orientation Groundspeed Altitude Reporting Facility
EDT Latitude Longitude Course Direction KTS MPH feet Rate Location/Type
Wed 03:48:22 PM 41.9667 -87.8667 77° East 167 192 2,100  Level Chicago TRACON
Wed 03:49:22 PM 41.9667 -87.8000 90° East 221 254 3,900 1,800 Climbing Chicago TRACON
Wed 03:50:22 PM 41.9833 -87.7000 77° East 266 306 5,700 2,200 Climbing Chicago TRACON
Wed 03:51:00 PM 42.0495 -87.3722 83° East  Level FlightAware Approximate
Wed 03:51:22 PM 42.0167 -87.6000 66° East 279 321 8,300  Level Chicago TRACON
Wed 03:52:00 PM 42.0698 -87.2380 78° East  Level FlightAware Approximate
Wed 03:52:22 PM 42.0333 -87.5000 77° East 294 338 10,400  Level Chicago TRACON
Wed 03:53:00 PM 42.0910 -87.1040 77° East  Level FlightAware Approximate
Wed 03:53:43 PM 42.0572 -87.3619 77° East 299 344 12,800  Level Chicago Center
Wed 03:54:45 PM 42.0792 -87.2461 76° East 317 365 13,900 919 Climbing Chicago Center
Wed 03:55:47 PM 42.1039 -87.1164 76° East 353 406 14,700 968 Climbing Chicago Center
Wed 03:56:49 PM 42.1153 -86.9778 84° East 369 425 15,900 1,403 Climbing Chicago Center
Wed 03:57:51 PM 42.1211 -86.8097 87° East 373 429 17,600 1,306 Climbing Chicago Center
Wed 03:58:53 PM 42.1267 -86.6622 87° East 382 440 18,600 968 Climbing Chicago Center
Wed 03:59:55 PM 42.1317 -86.5156 87° East 391 450 19,600 1,008 Climbing Chicago Center
Wed 04:00:58 PM 42.1361 -86.3658 88° East 399 459 20,700 1,104 Climbing Chicago Center
Wed 04:02:00 PM 42.1411 -86.2147 87° East 404 465 21,900 1,161 Climbing Chicago Center
Wed 04:03:02 PM 42.1436 -86.0611 89° East 408 470 23,100 1,355 Climbing Chicago Center
Wed 04:04:04 PM 42.1428 -85.8933 90° East 403 464 24,700 1,355 Climbing Chicago Center
Wed 04:05:06 PM 42.1403 -85.7436 91° East 402 463 25,900 1,161 Climbing Chicago Center
Wed 04:06:08 PM 42.1392 -85.5928 91° East 405 466 27,100 1,306 Climbing Chicago Center
Wed 04:07:10 PM 42.1383 -85.4472 90° East 396 456 28,600 1,353 Climbing Chicago Center
Wed 04:08:21 PM 42.1381 -85.2544 90° East 390 449 30,100 1,145 Climbing Cleveland Center
Wed 04:09:21 PM 42.1378 -85.1061 90° East 390 449 31,100 1,050 Climbing Cleveland Center
Wed 04:10:21 PM 42.1331 -84.9572 92° East 390 449 32,200 1,050 Climbing Cleveland Center
Wed 04:11:21 PM 42.1283 -84.8028 92° East 400 460 33,200 1,200 Climbing Cleveland Center
Wed 04:12:21 PM 42.1275 -84.6544 90° East 400 460 34,600 900 Climbing Cleveland Center
Wed 04:13:21 PM 42.1283 -84.5061 90° East 409 471 35,000 200 Climbing Cleveland Center
Wed 04:14:21 PM 42.1347 -84.3803 86° East 402 463 35,000  Level Cleveland Center
Wed 04:15:21 PM 42.1508 -84.2047 83° East 420 483 35,000  Level Cleveland Center
Wed 04:18:21 PM 42.2025 -83.7256 82° East 431 496 35,000  Level Cleveland Center
Wed 04:19:21 PM 42.2194 -83.5636 82° East 424 488 35,000  Level Cleveland Center
Wed 04:20:21 PM 42.2297 -83.4042 85° East 424 488 35,000 650 Level Cleveland Center
Wed 04:21:21 PM 42.2311 -83.2500 89° East 419 482 36,300 1,000 Climbing Cleveland Center
Wed 04:22:21 PM 42.2308 -83.0817 90° East 419 482 37,000 350 Climbing Cleveland Center
Wed 04:23:21 PM 42.2322 -82.9219 89° East 419 482 37,000  Level Cleveland Center
Wed 04:24:21 PM 42.2331 -82.7678 90° East 419 482 37,000  Level Cleveland Center
Wed 04:25:21 PM 42.2317 -82.6106 91° East 419 482 37,000  Level Cleveland Center
Wed 04:26:21 PM 42.2303 -82.4536 91° East 419 482 37,000  Level Cleveland Center
Wed 04:27:21 PM 42.2328 -82.2994 89° East 419 482 37,000  Level Cleveland Center
Wed 04:28:21 PM 42.2267 -82.1422 93° East 419 482 37,000  Level Cleveland Center
Wed 04:29:21 PM 42.2161 -81.9822 95° East 425 489 37,000  Level Cleveland Center
Wed 04:30:21 PM 42.2056 -81.8250 95° East 425 489 37,000  Level Cleveland Center
Wed 04:31:21 PM 42.1947 -81.6622 95° East 425 489 37,000  Level Cleveland Center
Wed 04:32:21 PM 42.1833 -81.5050 96° East 425 489 37,000  Level Cleveland Center
Wed 04:33:21 PM 42.1742 -81.3675 95° East 425 489 37,000  Level Cleveland Center
Wed 04:34:21 PM 42.1625 -81.2106 96° East 425 489 37,000  Level Cleveland Center
Wed 04:35:21 PM 42.1486 -81.0536 97° East 420 483 37,000  Level Cleveland Center
Wed 04:36:21 PM 42.1389 -80.9025 95° East 420 483 37,000  Level Cleveland Center
Wed 04:37:21 PM 42.1267 -80.7456 96° East 415 478 37,000  Level Cleveland Center
Wed 04:38:21 PM 42.1122 -80.5747 96° East 415 478 37,000  Level Cleveland Center
Wed 04:39:21 PM 42.0994 -80.4153 96° East 420 483 37,000  Level Cleveland Center
Wed 04:40:21 PM 42.0908 -80.2894 95° East 426 490 37,000  Level Cleveland Center
Wed 04:41:21 PM 42.0756 -80.0992 96° East 418 481 37,000  Level Cleveland Center
Wed 04:42:21 PM 42.0625 -79.9650 97° East 413 475 37,000  Level Cleveland Center
Wed 04:43:21 PM 42.0511 -79.8086 96° East 413 475 37,000 -400 Level Cleveland Center
Wed 04:44:21 PM 42.0375 -79.6550 97° East 413 475 36,200 -850 Descending Cleveland Center
Wed 04:45:21 PM 42.0236 -79.5014 97° East 413 475 35,300 -800 Descending Cleveland Center
Wed 04:46:21 PM 42.0075 -79.3508 98° East 408 470 34,600 -1,200 Descending Cleveland Center
Wed 04:47:21 PM 41.9956 -79.2086 96° East 401 461 32,900 -1,550 Descending Cleveland Center
Wed 04:48:21 PM 41.9833 -79.0608 96° East 396 456 31,500 -1,433 Descending Cleveland Center
Wed 04:50:21 PM 41.9561 -78.7628 97° East 396 456 28,600 -1,433 Descending Cleveland Center
Wed 04:51:21 PM 41.9408 -78.6067 97° East 410 472 27,200 -1,550 Descending Cleveland Center
Wed 04:52:21 PM 41.9231 -78.4314 98° East 422 486 25,500 -1,350 Descending Cleveland Center
Wed 04:53:21 PM 41.9103 -78.2981 97° East 422 486 24,500 -1,100 Descending Cleveland Center
Wed 04:54:21 PM 41.8944 -78.1450 98° East 416 479 23,300 -592 Descending Cleveland Center
Wed 04:55:53 PM 41.8697 -77.9017 98° East 395 455 23,000 -118 Descending New York Center
Wed 04:56:53 PM 41.8303 -77.7608 111° Southeast 395 455 23,000  Level New York Center
Wed 04:57:54 PM 41.7756 -77.6272 119° Southeast 401 461 23,000  Level New York Center
Wed 04:58:54 PM 41.7247 -77.4939 117° Southeast 407 468 23,000 -197 Level New York Center
Wed 04:59:56 PM 41.6867 -77.3569 110° East 401 461 22,600 -850 Descending New York Center
Wed 05:00:54 PM 41.6747 -77.2306 97° East 366 421 21,300 -1,109 Descending New York Center
Wed 05:01:55 PM 41.6603 -77.1125 99° East 340 391 20,400 -650 Descending New York Center
Wed 05:02:54 PM 41.6461 -76.9892 99° East 330 380 20,000 -706 Descending New York Center
Wed 05:03:54 PM 41.6342 -76.8547 97° East 344 396 19,000 -1,240 Descending New York Center
Wed 05:04:55 PM 41.5969 -76.7264 111° Southeast 362 417 17,500 -1,210 Descending New York Center
Wed 05:05:53 PM 41.5617 -76.5986 110° East 373 429 16,600 -1,160 Descending New York Center
Wed 05:06:54 PM 41.5569 -76.4844 93° East 350 403 15,200 -1,835 Descending New York Center
Wed 05:07:54 PM 41.5547 -76.3511 91° East 355 409 12,900 -2,250 Descending New York Center
Wed 05:08:54 PM 41.5550 -76.2153 90° East 340 391 10,700 -1,884 Descending New York Center
Wed 05:09:55 PM 41.5389 -76.1117 102° East 300 345 9,100 -1,983 Descending New York Center
Wed 05:10:52 PM 41.4986 -76.0336 125° Southeast 264 304 6,800 -2,034 Descending New York Center
Wed 05:11:53 PM 41.4553 -75.9775 136° Southeast 251 289 5,100 -1,388 Descending New York Center
Wed 05:12:53 PM 41.3892 -75.9614 170° South 233 268 4,000 -545 Descending New York Center
Wed 05:13:54 PM 41.3236 -75.9397 166° South 233 268 4,000  Level New York Center
Wed 05:14:54 PM 41.2617 -75.9239 169° South 240 276 4,000  Level New York Center
Wed 05:15:55 PM 41.2022 -75.9056 167° South 228 262 4,000  Level New York Center
Wed 05:16:53 PM 41.1919 -75.8525 104° East 172 198 4,000 -605 Level New York Center
Wed 05:17:54 PM 41.2481 -75.8042 33° Northeast 151 174 2,800 -942 Descending New York Center
Wed 05:18:54 PM 41.2828 -75.7708 36° Northeast 165 190 2,100 -756 Descending New York Center
Wed 05:19:53 PM 41.3153 -75.7458 30° Northeast 158 182 1,300 -454 Descending New York Center
Wed 05:20:53 PM 41.3522 -75.7042 40° Northeast 151 174 1,200 -100 Descending New York Center

Login

Don't have an account? Register now (free) for customized features, flight alerts, and more!